TimeEST,TemperatureF,Dew PointF,Humidity,Sea Level PressureIn,VisibilityMPH,Wind Direction,Wind SpeedMPH,Gust SpeedMPH,PrecipitationIn,Events,Conditions,WindDirDegrees,DateUTC
12:56 AM,50.0,37.9,63,30.04,10.0,ENE,5.8,-,N/A,,Mostly Cloudy,70,2012-11-06 05:56:00
1:56 AM,48.9,39.0,69,30.04,10.0,East,5.8,-,N/A,,Mostly Cloudy,90,2012-11-06 06:56:00
2:56 AM,50.0,37.0,61,30.02,10.0,ENE,8.1,-,N/A,,Overcast,70,2012-11-06 07:56:00
3:56 AM,48.9,36.0,61,30.00,10.0,East,10.4,-,N/A,,Overcast,80,2012-11-06 08:56:00
4:56 AM,48.9,35.1,59,30.04,10.0,ENE,6.9,-,N/A,,Overcast,70,2012-11-06 09:56:00
5:56 AM,48.0,36.0,63,30.04,10.0,ENE,6.9,-,N/A,,Overcast,70,2012-11-06 10:56:00
6:56 AM,46.9,35.1,63,30.02,10.0,NE,8.1,-,N/A,,Mostly Cloudy,50,2012-11-06 11:56:00
7:56 AM,46.9,33.1,59,30.06,10.0,NE,10.4,-,N/A,,Overcast,50,2012-11-06 12:56:00
8:56 AM,46.9,32.0,56,30.05,10.0,NE,10.4,16.1,N/A,,Overcast,40,2012-11-06 13:56:00
9:56 AM,46.9,30.9,54,30.06,10.0,NNE,9.2,-,N/A,,Overcast,30,2012-11-06 14:56:00
10:56 AM,48.0,30.0,50,30.05,10.0,NE,12.7,20.7,N/A,,Overcast,50,2012-11-06 15:56:00
11:56 AM,51.1,30.9,46,30.02,10.0,North,13.8,18.4,N/A,,Mostly Cloudy,10,2012-11-06 16:56:00
12:56 PM,54.0,33.1,45,29.96,10.0,NNE,13.8,21.9,N/A,,Mostly Cloudy,30,2012-11-06 17:56:00
1:56 PM,53.1,34.0,48,29.95,10.0,NE,6.9,16.1,N/A,,Mostly Cloudy,40,2012-11-06 18:56:00
2:56 PM,52.0,35.1,53,29.96,10.0,NNE,9.2,-,N/A,,Overcast,20,2012-11-06 19:56:00
3:56 PM,52.0,34.0,50,29.95,10.0,ENE,11.5,-,N/A,,Mostly Cloudy,70,2012-11-06 20:56:00
4:56 PM,51.1,35.1,54,29.95,10.0,NNE,8.1,-,N/A,,Scattered Clouds,30,2012-11-06 21:56:00
5:56 PM,48.9,34.0,56,29.96,10.0,NNE,5.8,-,N/A,,Scattered Clouds,30,2012-11-06 22:56:00
6:56 PM,46.9,34.0,61,29.99,10.0,Calm,Calm,-,N/A,,Partly Cloudy,0,2012-11-06 23:56:00
7:56 PM,46.0,34.0,63,29.98,10.0,North,5.8,-,N/A,,Clear,10,2012-11-07 00:56:00
8:56 PM,44.1,33.1,65,29.96,10.0,NNE,5.8,-,N/A,,Clear,20,2012-11-07 01:56:00
9:56 PM,44.1,30.9,60,29.95,10.0,NNE,6.9,-,N/A,,Clear,20,2012-11-07 02:56:00
10:56 PM,42.1,32.0,67,29.96,10.0,NNW,4.6,-,N/A,,Scattered Clouds,330,2012-11-07 03:56:00
11:56 PM,39.9,32.0,73,29.95,10.0,NNW,3.5,-,N/A,,Scattered Clouds,330,2012-11-07 04:56:00